Terminal Aerodrome Forecast
Issued by NWS Oklahoma City, OK

Home | Current Version | Previous Version | Text Only | Print | Product List | Glossary On
Versions: 1 2 3 4 5 6 7 8 9 10 11 12 13 14 15
000
FTUS44 KOUN 281124
TAFOUN
TAF
KOUN 281124Z 2812/2912 13007KT P6SM FEW025 SCT200 OVC250
      TEMPO 2813/2816 09008KT BKN025
     FM281700 36006KT P6SM BKN120
     FM282100 11010KT P6SM OVC050
     FM290300 08013KT P6SM OVC040 PROB30 2903/2907 2SM TSRA BKN035CB
     FM290700 08013KT 3SM TSRA OVC025CB=

USA.gov is the U.S. government's official web portal to all federal, state and local government web resources and services.